Time;durP1;ratioP1;P1;durP2;ratioP2;P2;SDS_P1;SDS_P2;PMS_P1;PMS_P2;Temp;Humidity;BMP_temperature;BMP_pressure;BME280_temperature;BME280_humidity;BME280_pressure;Samples;Min_cycle;Max_cycle;Signal;HPM_P1;HPM_P2
2022/11/09 00:00:05;;;;;;;3.20;2.20;;;-9.90;99.90;;;;;;5097249;28;20273;-72
2022/11/09 00:02:31;;;;;;;4.93;1.80;;;-9.80;99.90;;;;;;5097345;28;20584;-71
2022/11/09 00:04:57;;;;;;;3.53;2.03;;;-9.50;99.90;;;;;;5089956;28;20253;-71
2022/11/09 00:07:23;;;;;;;11.47;3.07;;;-9.10;99.90;;;;;;5085002;28;20258;-73
2022/11/09 00:09:48;;;;;;;5.80;1.70;;;-8.30;99.90;;;;;;5091412;28;20202;-72
2022/11/09 00:12:14;;;;;;;8.53;1.60;;;-9.70;99.90;;;;;;5089212;28;20186;-71
2022/11/09 00:14:40;;;;;;;12.10;3.80;;;-8.50;99.90;;;;;;5085348;28;20205;-74
2022/11/09 00:17:06;;;;;;;8.80;2.10;;;-8.40;99.90;;;;;;5095642;28;20185;-72
2022/11/09 00:19:31;;;;;;;6.50;2.10;;;-8.00;99.90;;;;;;5090017;28;20187;-72
2022/11/09 00:21:57;;;;;;;9.40;2.33;;;-7.40;99.90;;;;;;5089868;28;20202;-71
2022/11/09 00:24:23;;;;;;;7.27;2.90;;;-6.90;99.90;;;;;;5087254;28;20176;-73
2022/11/09 00:26:49;;;;;;;10.73;2.87;;;-5.90;99.90;;;;;;5091218;28;20218;-73
2022/11/09 00:29:14;;;;;;;3.33;1.83;;;-6.80;99.90;;;;;;5086978;28;20179;-73
2022/11/09 00:31:40;;;;;;;5.40;2.93;;;-7.80;99.90;;;;;;5111930;27;20214;-72
2022/11/09 00:34:06;;;;;;;5.40;2.70;;;-9.60;99.90;;;;;;5096669;28;20624;-74
2022/11/09 00:36:32;;;;;;;4.97;2.30;;;-11.50;99.90;;;;;;5093247;28;20182;-72
2022/11/09 00:38:59;;;;;;;8.10;3.37;;;-10.30;99.90;;;;;;5086966;28;20185;-71
2022/11/09 00:41:25;;;;;;;5.27;2.30;;;-13.20;99.90;;;;;;5083858;28;20231;-71
2022/11/09 00:43:52;;;;;;;16.00;4.00;;;-13.10;99.90;;;;;;5090945;28;20193;-71
2022/11/09 00:46:18;;;;;;;8.37;3.37;;;-14.00;99.90;;;;;;5095272;28;20182;-70
2022/11/09 00:48:45;;;;;;;9.80;2.93;;;-10.50;99.90;;;;;;5096217;28;20243;-72
2022/11/09 00:51:11;;;;;;;6.47;2.60;;;0.80;99.90;;;;;;5092175;28;20668;-72
2022/11/09 00:53:37;;;;;;;6.63;2.90;;;9.20;99.90;;;;;;5093986;28;20171;-76
2022/11/09 00:56:05;;;;;;;10.73;3.20;;;10.00;99.90;;;;;;5084189;28;20488;-72
2022/11/09 00:58:34;;;;;;;5.97;1.90;;;-9.90;99.90;;;;;;5096136;28;20474;-71
2022/11/09 01:01:12;;;;;;;8.50;2.43;;;-12.10;99.90;;;;;;5096027;28;20201;-72
2022/11/09 01:03:39;;;;;;;9.93;5.33;;;-12.60;99.90;;;;;;5084351;28;20614;-72
2022/11/09 01:06:05;;;;;;;5.60;2.00;;;-8.70;99.90;;;;;;5084734;28;20183;-71
2022/11/09 01:08:32;;;;;;;13.27;4.20;;;-9.40;99.90;;;;;;5095814;28;20224;-72
2022/11/09 01:11:06;;;;;;;8.20;3.07;;;6.80;99.90;;;;;;5082333;28;20707;-71
2022/11/09 01:13:33;;;;;;;6.93;2.53;;;7.70;99.90;;;;;;5082974;28;20213;-73
2022/11/09 01:15:58;;;;;;;6.20;2.50;;;7.50;99.90;;;;;;5094692;28;20190;-71
2022/11/09 01:18:24;;;;;;;8.30;3.23;;;8.00;99.90;;;;;;5091705;28;20185;-72
2022/11/09 01:20:50;;;;;;;8.43;3.00;;;7.60;99.90;;;;;;5095992;28;20196;-71
2022/11/09 01:23:17;;;;;;;10.67;3.27;;;7.60;99.90;;;;;;5090517;28;20182;-71
2022/11/09 01:25:44;;;;;;;6.17;2.57;;;8.50;99.90;;;;;;5095946;28;20284;-71
2022/11/09 01:28:10;;;;;;;5.20;3.03;;;8.10;99.90;;;;;;5091415;28;20285;-71
2022/11/09 01:30:39;;;;;;;8.53;3.20;;;7.80;99.90;;;;;;5089850;28;20202;-74
2022/11/09 01:33:06;;;;;;;12.37;2.93;;;7.30;99.90;;;;;;5090069;28;20213;-73
2022/11/09 01:35:33;;;;;;;5.20;2.57;;;8.20;99.90;;;;;;5089426;28;20182;-71
2022/11/09 01:37:59;;;;;;;4.37;2.40;;;7.90;99.90;;;;;;5096002;28;20178;-74
2022/11/09 01:40:29;;;;;;;11.23;3.10;;;8.60;99.90;;;;;;5095596;28;20186;-71
2022/11/09 01:42:55;;;;;;;13.67;4.20;;;9.00;99.90;;;;;;5095452;28;20291;-71
2022/11/09 01:45:25;;;;;;;6.83;2.80;;;8.90;99.90;;;;;;5094317;28;20664;-72
2022/11/09 01:48:00;;;;;;;10.30;3.03;;;9.10;99.90;;;;;;5089955;28;20652;-72
2022/11/09 01:50:55;;;;;;;6.03;2.40;;;8.90;99.90;;;;;;5095071;28;20201;-71
2022/11/09 01:53:29;;;;;;;6.60;2.50;;;9.00;99.90;;;;;;5082159;28;20195;-74
2022/11/09 01:55:58;;;;;;;7.83;2.30;;;8.90;99.90;;;;;;5081555;28;20198;-74
2022/11/09 01:58:29;;;;;;;10.27;3.10;;;8.80;99.90;;;;;;5091445;28;20487;-75
2022/11/09 02:00:57;;;;;;;7.57;2.30;;;8.90;99.90;;;;;;5086824;28;20228;-74
2022/11/09 02:03:36;;;;;;;3.87;1.73;;;9.20;99.90;;;;;;5099523;28;20205;-72
2022/11/09 02:06:05;;;;;;;4.83;1.93;;;9.10;99.90;;;;;;5096575;28;20185;-75
2022/11/09 02:08:31;;;;;;;5.30;2.30;;;8.60;99.90;;;;;;5092819;28;20166;-73
2022/11/09 02:11:03;;;;;;;4.40;1.73;;;9.00;99.90;;;;;;5085327;28;20210;-73
2022/11/09 02:13:30;;;;;;;12.00;3.00;;;8.30;99.90;;;;;;5091406;28;20175;-71
2022/11/09 02:15:57;;;;;;;12.40;2.73;;;8.50;99.90;;;;;;5090882;28;20258;-74
2022/11/09 02:18:22;;;;;;;10.17;3.63;;;8.60;99.90;;;;;;5097019;28;20210;-74
2022/11/09 02:20:53;;;;;;;6.43;2.80;;;8.40;99.90;;;;;;5098956;28;20214;-72
2022/11/09 02:23:20;;;;;;;10.43;2.80;;;8.50;99.90;;;;;;5092244;28;20250;-73
2022/11/09 02:25:56;;;;;;;4.70;2.37;;;7.50;99.90;;;;;;5096038;28;20207;-73
2022/11/09 02:28:24;;;;;;;6.50;2.90;;;-7.60;99.90;;;;;;5080743;28;20183;-72
2022/11/09 02:30:51;;;;;;;8.87;2.77;;;12.30;99.90;;;;;;5096626;28;20203;-74
2022/11/09 02:33:17;;;;;;;6.53;2.60;;;13.60;99.90;;;;;;5099655;28;20532;-76
2022/11/09 02:35:43;;;;;;;6.53;2.53;;;13.70;99.90;;;;;;5098947;28;20178;-73
2022/11/09 02:38:13;;;;;;;8.40;3.43;;;13.60;99.90;;;;;;5094334;28;20226;-73
2022/11/09 02:40:42;;;;;;;4.97;2.70;;;13.50;99.90;;;;;;5098341;28;20211;-73
2022/11/09 02:43:09;;;;;;;12.47;3.17;;;13.50;99.90;;;;;;5093813;28;20187;-72
2022/11/09 02:45:35;;;;;;;16.80;5.20;;;13.50;99.90;;;;;;5097416;28;20182;-72
2022/11/09 02:48:01;;;;;;;9.70;4.37;;;13.40;99.90;;;;;;5098725;28;20206;-72
2022/11/09 02:50:27;;;;;;;19.43;5.00;;;13.40;99.90;;;;;;5095389;28;20617;-72
2022/11/09 02:52:53;;;;;;;9.20;3.97;;;13.40;99.90;;;;;;5090647;28;20197;-74
2022/11/09 02:55:19;;;;;;;12.27;2.70;;;13.10;99.90;;;;;;5091652;28;20185;-73
2022/11/09 02:57:45;;;;;;;9.13;2.87;;;13.20;99.90;;;;;;5094515;28;20181;-71
2022/11/09 03:00:11;;;;;;;10.20;2.87;;;13.30;99.90;;;;;;5095900;28;20271;-74
2022/11/09 03:02:37;;;;;;;6.13;2.83;;;13.00;99.90;;;;;;5083568;28;20275;-72
2022/11/09 03:05:03;;;;;;;12.63;3.93;;;12.90;99.90;;;;;;5092185;28;20260;-74
2022/11/09 03:07:29;;;;;;;14.93;3.93;;;12.10;99.90;;;;;;5098333;28;20182;-71
2022/11/09 03:09:55;;;;;;;8.90;3.23;;;8.00;99.90;;;;;;5094075;28;20260;-71
2022/11/09 03:12:30;;;;;;;7.47;2.87;;;7.80;99.90;;;;;;5098305;28;20401;-72
2022/11/09 03:15:01;;;;;;;11.87;4.10;;;8.90;99.90;;;;;;5087446;28;20694;-73
2022/11/09 03:17:28;;;;;;;16.63;3.97;;;9.00;99.90;;;;;;5092163;28;20216;-72
2022/11/09 03:19:54;;;;;;;14.27;4.13;;;8.80;99.90;;;;;;5094097;28;20489;-72
2022/11/09 03:22:20;;;;;;;18.33;3.53;;;13.50;99.90;;;;;;5093540;28;20186;-73
2022/11/09 03:24:46;;;;;;;8.07;2.63;;;13.60;99.90;;;;;;5096462;28;20181;-71
2022/11/09 03:27:12;;;;;;;8.27;2.40;;;13.60;99.90;;;;;;5097698;28;20493;-71
2022/11/09 03:29:38;;;;;;;10.03;2.97;;;13.60;99.90;;;;;;5097598;28;20177;-72
2022/11/09 03:32:04;;;;;;;8.13;2.53;;;13.60;99.90;;;;;;5097477;28;20270;-70
2022/11/09 03:34:30;;;;;;;9.77;3.87;;;13.50;99.90;;;;;;5097944;28;20237;-72
2022/11/09 03:36:56;;;;;;;6.67;1.93;;;13.50;99.90;;;;;;5095356;28;20188;-70
2022/11/09 03:39:22;;;;;;;13.73;3.97;;;13.50;99.90;;;;;;5087448;28;20186;-72
2022/11/09 03:41:48;;;;;;;10.43;2.67;;;13.50;99.90;;;;;;5085596;28;20196;-71
2022/11/09 03:44:14;;;;;;;15.77;4.17;;;13.50;99.90;;;;;;5086513;28;20218;-72
2022/11/09 03:46:40;;;;;;;12.93;3.27;;;13.50;99.90;;;;;;5089809;28;20271;-72
2022/11/09 03:49:05;;;;;;;5.90;2.57;;;13.60;99.90;;;;;;5092544;28;20183;-73
2022/11/09 03:51:31;;;;;;;4.23;2.30;;;13.60;99.90;;;;;;5097501;28;20217;-72
2022/11/09 03:53:57;;;;;;;6.33;2.40;;;13.50;99.90;;;;;;5088748;28;20182;-72
2022/11/09 03:56:23;;;;;;;9.43;2.13;;;13.60;99.90;;;;;;5091272;28;20190;-72
2022/11/09 03:58:48;;;;;;;4.70;2.03;;;13.50;99.90;;;;;;5090384;28;20640;-72
2022/11/09 04:01:14;;;;;;;10.97;2.70;;;13.60;99.90;;;;;;5086571;28;20183;-72
2022/11/09 04:03:40;;;;;;;8.03;2.67;;;13.50;99.90;;;;;;5086670;28;20259;-73
2022/11/09 04:06:06;;;;;;;19.57;3.23;;;13.50;99.90;;;;;;5097475;28;20195;-73
2022/11/09 04:08:32;;;;;;;6.73;2.43;;;13.40;99.90;;;;;;5095651;28;20206;-72
2022/11/09 04:10:57;;;;;;;7.50;2.17;;;13.50;99.90;;;;;;5094263;28;20202;-72
2022/11/09 04:13:23;;;;;;;10.87;3.43;;;13.40;99.90;;;;;;5088028;28;20172;-72
2022/11/09 04:15:49;;;;;;;5.80;2.77;;;13.40;99.90;;;;;;5085923;28;20186;-72
2022/11/09 04:18:15;;;;;;;12.83;3.43;;;13.30;99.90;;;;;;5090295;28;20257;-72
2022/11/09 04:20:41;;;;;;;8.67;2.77;;;13.30;99.90;;;;;;5095676;28;20646;-72
2022/11/09 04:23:10;;;;;;;9.80;3.13;;;13.20;99.90;;;;;;5096678;28;20670;-72
2022/11/09 04:25:38;;;;;;;4.87;2.37;;;13.00;99.90;;;;;;5092533;28;20188;-72
2022/11/09 04:28:05;;;;;;;17.33;3.40;;;13.10;99.90;;;;;;5092106;28;20198;-71
2022/11/09 04:30:33;;;;;;;15.13;2.93;;;13.10;99.90;;;;;;5083765;28;20672;-72
2022/11/09 04:32:59;;;;;;;10.40;3.10;;;13.20;99.90;;;;;;5093488;28;20189;-71
2022/11/09 04:35:26;;;;;;;13.03;2.67;;;13.10;99.90;;;;;;5096804;28;20261;-72
2022/11/09 04:38:00;;;;;;;15.03;3.50;;;13.20;99.90;;;;;;5092145;28;20187;-71
2022/11/09 04:40:29;;;;;;;6.77;3.03;;;13.10;99.90;;;;;;5081901;28;20189;-72
2022/11/09 04:42:58;;;;;;;11.03;2.57;;;13.10;99.90;;;;;;5090524;28;20190;-72
2022/11/09 04:45:23;;;;;;;9.10;3.53;;;13.10;99.90;;;;;;5084232;28;20184;-72
2022/11/09 04:47:49;;;;;;;8.03;2.50;;;13.00;99.90;;;;;;5084011;28;20604;-71
2022/11/09 04:50:15;;;;;;;8.20;2.27;;;12.90;99.90;;;;;;5091638;28;20217;-71
2022/11/09 04:52:41;;;;;;;6.23;2.27;;;12.80;99.90;;;;;;5078974;28;20589;-71
2022/11/09 04:55:07;;;;;;;9.93;3.80;;;12.80;99.90;;;;;;5095226;28;20191;-72
2022/11/09 04:57:33;;;;;;;6.97;2.97;;;12.80;99.90;;;;;;5093154;28;20190;-73
2022/11/09 04:59:59;;;;;;;5.00;2.00;;;12.90;99.90;;;;;;5095880;28;20183;-71
2022/11/09 05:02:24;;;;;;;10.13;2.77;;;13.00;99.90;;;;;;5092109;28;20198;-74
2022/11/09 05:04:50;;;;;;;7.47;2.80;;;13.00;99.90;;;;;;5089071;28;20210;-72
2022/11/09 05:07:16;;;;;;;5.50;2.40;;;13.00;99.90;;;;;;5088360;28;20178;-71
2022/11/09 05:09:41;;;;;;;11.90;2.53;;;12.80;99.90;;;;;;5092289;28;20179;-72
2022/11/09 05:12:10;;;;;;;7.33;3.20;;;12.80;99.90;;;;;;5095407;28;20189;-74
2022/11/09 05:14:36;;;;;;;8.63;2.47;;;12.70;99.90;;;;;;5091472;28;20190;-75
2022/11/09 05:17:02;;;;;;;5.87;2.53;;;12.60;99.90;;;;;;5095024;28;20224;-74
2022/11/09 05:19:28;;;;;;;10.40;2.57;;;12.30;99.90;;;;;;5096153;28;20206;-72
2022/11/09 05:21:54;;;;;;;11.40;2.73;;;12.40;99.90;;;;;;5095700;28;20475;-74
2022/11/09 05:24:19;;;;;;;14.40;2.60;;;12.30;99.90;;;;;;5088423;28;20194;-74
2022/11/09 05:26:45;;;;;;;16.73;2.80;;;12.20;99.90;;;;;;5084148;28;20264;-75
2022/11/09 05:29:12;;;;;;;9.87;2.70;;;12.30;99.90;;;;;;5086644;28;20189;-75
2022/11/09 05:31:38;;;;;;;9.23;3.00;;;12.30;99.90;;;;;;5086389;28;20234;-73
2022/11/09 05:34:05;;;;;;;9.33;3.37;;;11.30;99.90;;;;;;5092389;28;20187;-71
2022/11/09 05:36:35;;;;;;;11.90;3.77;;;9.90;99.90;;;;;;5095660;28;20178;-73
2022/11/09 05:39:00;;;;;;;10.13;3.50;;;9.70;99.90;;;;;;5095630;28;20206;-70
2022/11/09 05:41:26;;;;;;;8.47;2.77;;;9.40;99.90;;;;;;5086577;28;20210;-71
2022/11/09 05:43:52;;;;;;;8.93;2.63;;;12.80;99.90;;;;;;5090490;28;20188;-72
2022/11/09 05:46:18;;;;;;;5.83;2.63;;;12.70;99.90;;;;;;5088785;28;20182;-72
2022/11/09 05:48:45;;;;;;;5.70;2.50;;;12.70;99.90;;;;;;5082165;28;20179;-71
2022/11/09 05:51:12;;;;;;;12.10;2.90;;;12.80;99.90;;;;;;5089437;28;20297;-71
2022/11/09 05:53:39;;;;;;;5.53;1.90;;;12.70;99.90;;;;;;5094635;28;20541;-70
2022/11/09 05:56:09;;;;;;;6.47;2.43;;;12.80;99.90;;;;;;5089516;28;20193;-73
2022/11/09 05:58:37;;;;;;;6.87;1.70;;;12.70;99.90;;;;;;5095698;28;20214;-72
2022/11/09 06:01:09;;;;;;;8.43;2.90;;;12.70;99.90;;;;;;5079436;28;20488;-72
2022/11/09 06:03:34;;;;;;;5.10;2.70;;;12.80;99.90;;;;;;5086215;28;20222;-71
2022/11/09 06:06:05;;;;;;;10.07;3.03;;;12.70;99.90;;;;;;5091959;28;20175;-73
2022/11/09 06:08:31;;;;;;;5.83;2.17;;;12.80;99.90;;;;;;5095276;28;20604;-70
2022/11/09 06:11:00;;;;;;;6.20;2.90;;;12.80;99.90;;;;;;5092065;28;20219;-72
2022/11/09 06:13:26;;;;;;;8.63;3.37;;;12.70;99.90;;;;;;5093486;28;20276;-72
2022/11/09 06:15:57;;;;;;;10.60;3.23;;;12.60;99.90;;;;;;5091128;28;20587;-71
2022/11/09 06:18:24;;;;;;;10.13;3.17;;;12.70;99.90;;;;;;5084143;28;20608;-75
2022/11/09 06:20:56;;;;;;;11.60;3.67;;;12.70;99.90;;;;;;5090323;28;20198;-71
2022/11/09 06:23:25;;;;;;;9.17;2.70;;;12.80;99.90;;;;;;5095454;28;20198;-76
2022/11/09 06:25:52;;;;;;;8.30;3.20;;;12.70;99.90;;;;;;5088310;28;20187;-74
2022/11/09 06:28:19;;;;;;;8.13;2.40;;;12.60;99.90;;;;;;5089265;28;20653;-74
2022/11/09 06:30:45;;;;;;;7.17;3.13;;;12.70;99.90;;;;;;5087451;28;20371;-77
2022/11/09 06:33:11;;;;;;;14.47;3.47;;;12.70;99.90;;;;;;5090326;28;20265;-75
2022/11/09 06:35:36;;;;;;;7.53;2.80;;;12.60;99.90;;;;;;5081144;28;20487;-73
2022/11/09 06:38:02;;;;;;;7.97;2.50;;;12.60;99.90;;;;;;5081581;28;20187;-72
2022/11/09 06:40:28;;;;;;;6.63;2.20;;;12.60;99.90;;;;;;5090868;28;20194;-73
2022/11/09 06:43:00;;;;;;;8.93;3.27;;;12.70;99.90;;;;;;5092562;28;20206;-73
2022/11/09 06:45:28;;;;;;;10.23;2.63;;;12.70;99.90;;;;;;5098079;28;20186;-73
2022/11/09 06:47:58;;;;;;;11.90;3.30;;;12.60;99.90;;;;;;5095098;28;20174;-73
2022/11/09 06:50:25;;;;;;;10.20;3.50;;;12.50;99.90;;;;;;5093596;28;20248;-73
2022/11/09 06:52:56;;;;;;;9.63;2.30;;;12.50;99.90;;;;;;5096904;28;20968;-73
2022/11/09 06:55:22;;;;;;;8.67;2.30;;;12.50;99.90;;;;;;5094207;28;20228;-72
2022/11/09 06:57:48;;;;;;;12.67;3.13;;;12.50;99.90;;;;;;5093297;28;20179;-68
2022/11/09 07:00:14;;;;;;;4.77;2.17;;;12.50;99.90;;;;;;5093707;28;20187;-70
2022/11/09 07:02:41;;;;;;;14.33;3.57;;;12.40;99.90;;;;;;5098110;28;20210;-70
2022/11/09 07:05:07;;;;;;;12.27;3.33;;;12.50;99.90;;;;;;5094591;28;20218;-70
2022/11/09 07:07:33;;;;;;;4.97;2.33;;;12.60;99.90;;;;;;5092554;28;20182;-69
2022/11/09 07:09:59;;;;;;;9.33;3.00;;;12.50;99.90;;;;;;5094981;28;20236;-71
2022/11/09 07:12:25;;;;;;;8.80;2.73;;;12.60;99.90;;;;;;5093162;28;20175;-67
2022/11/09 07:14:51;;;;;;;7.37;2.40;;;12.40;99.90;;;;;;5087251;28;20254;-70
2022/11/09 07:17:16;;;;;;;6.20;2.20;;;12.50;99.90;;;;;;5092883;28;20578;-67
2022/11/09 07:19:42;;;;;;;12.37;2.77;;;12.50;99.90;;;;;;5096287;28;20187;-66
2022/11/09 07:22:08;;;;;;;8.53;4.43;;;12.50;99.90;;;;;;5084112;28;20179;-68
2022/11/09 07:24:34;;;;;;;6.63;2.13;;;12.40;99.90;;;;;;5092689;28;20629;-69
2022/11/09 07:26:59;;;;;;;10.83;3.57;;;12.40;99.90;;;;;;5093488;28;20172;-69
2022/11/09 07:29:25;;;;;;;11.10;3.13;;;12.30;99.90;;;;;;5097429;28;20167;-75
2022/11/09 07:31:51;;;;;;;13.80;4.13;;;12.30;99.90;;;;;;5086232;28;20206;-73
2022/11/09 07:34:16;;;;;;;11.43;3.30;;;12.30;99.90;;;;;;5088111;28;20183;-73
2022/11/09 07:36:42;;;;;;;11.93;3.80;;;12.30;99.90;;;;;;5088763;28;20269;-66
2022/11/09 07:39:08;;;;;;;9.40;3.43;;;12.30;99.90;;;;;;5096170;28;20210;-67
2022/11/09 07:41:34;;;;;;;11.67;3.80;;;12.40;99.90;;;;;;5096072;28;20215;-70
2022/11/09 07:43:59;;;;;;;11.03;3.60;;;12.50;99.90;;;;;;5091761;28;20261;-70
2022/11/09 07:46:25;;;;;;;8.33;3.00;;;12.40;99.90;;;;;;5099793;28;20191;-69
2022/11/09 07:48:51;;;;;;;7.97;3.07;;;12.50;99.90;;;;;;5084299;28;20233;-70
2022/11/09 07:51:17;;;;;;;9.80;3.40;;;12.60;99.90;;;;;;5097290;28;20665;-71
2022/11/09 07:53:42;;;;;;;7.20;2.30;;;12.50;99.90;;;;;;5095131;28;20175;-70
2022/11/09 07:56:08;;;;;;;9.50;2.80;;;12.50;99.90;;;;;;5084472;28;20206;-70
2022/11/09 07:58:35;;;;;;;11.93;3.33;;;12.50;99.90;;;;;;5092087;28;20248;-70
2022/11/09 08:01:05;;;;;;;12.07;2.63;;;12.50;99.90;;;;;;5089980;28;20197;-69
2022/11/09 08:03:30;;;;;;;4.30;1.90;;;12.50;99.90;;;;;;5092037;28;20220;-68
2022/11/09 08:05:57;;;;;;;9.40;2.40;;;12.40;99.90;;;;;;5091460;28;20621;-69
2022/11/09 08:08:22;;;;;;;6.63;3.20;;;12.40;99.90;;;;;;5095685;28;20205;-69
2022/11/09 08:10:51;;;;;;;17.07;6.43;;;12.40;99.90;;;;;;5096981;28;20599;-68
2022/11/09 08:13:17;;;;;;;13.13;2.77;;;12.50;99.90;;;;;;5090556;28;20185;-68
2022/11/09 08:15:43;;;;;;;7.13;2.33;;;12.60;99.90;;;;;;5096387;28;20197;-67
2022/11/09 08:18:18;;;;;;;7.50;2.60;;;12.60;99.90;;;;;;5082836;28;20595;-68
2022/11/09 08:20:44;;;;;;;13.37;3.57;;;12.70;99.90;;;;;;5095518;28;20190;-69
2022/11/09 08:23:14;;;;;;;8.13;2.50;;;12.80;99.90;;;;;;5090831;28;20652;-69
2022/11/09 08:25:40;;;;;;;10.83;3.20;;;12.80;99.90;;;;;;5085048;28;20174;-70
2022/11/09 08:28:07;;;;;;;6.17;2.37;;;12.80;99.90;;;;;;5095754;28;20206;-69
2022/11/09 08:30:33;;;;;;;5.90;2.10;;;12.80;99.90;;;;;;5084622;28;20202;-68
2022/11/09 08:33:00;;;;;;;13.87;3.03;;;12.90;99.90;;;;;;5084481;28;20221;-67
2022/11/09 08:35:27;;;;;;;12.63;2.77;;;13.00;99.90;;;;;;5084977;28;20214;-68
2022/11/09 08:37:53;;;;;;;7.30;2.57;;;13.10;99.90;;;;;;5090789;28;20179;-70
2022/11/09 08:40:23;;;;;;;7.93;3.80;;;13.00;99.90;;;;;;5096942;28;20179;-69
2022/11/09 08:42:49;;;;;;;8.47;2.30;;;13.10;99.90;;;;;;5092657;28;20190;-67
2022/11/09 08:45:15;;;;;;;12.17;2.60;;;13.00;99.90;;;;;;5090147;28;21147;-70
2022/11/09 08:47:42;;;;;;;5.60;2.57;;;13.10;99.90;;;;;;5089018;28;20178;-68
2022/11/09 08:50:09;;;;;;;9.70;3.07;;;13.00;99.90;;;;;;5089123;28;20202;-68
2022/11/09 08:52:35;;;;;;;8.63;2.60;;;13.00;99.90;;;;;;5091674;28;20175;-68
2022/11/09 08:55:01;;;;;;;13.70;2.83;;;13.00;99.90;;;;;;5089719;28;20274;-68
2022/11/09 08:57:27;;;;;;;11.67;3.87;;;13.10;99.90;;;;;;5093752;28;20269;-70
2022/11/09 08:59:53;;;;;;;7.33;2.70;;;13.20;99.90;;;;;;5095908;28;20660;-71
2022/11/09 09:02:20;;;;;;;6.33;1.90;;;13.20;99.90;;;;;;5094622;28;20199;-71
2022/11/09 09:04:46;;;;;;;9.43;2.07;;;13.20;99.90;;;;;;5089177;28;20637;-69
2022/11/09 09:07:12;;;;;;;12.20;3.03;;;13.10;99.90;;;;;;5095031;28;20364;-71
2022/11/09 09:09:38;;;;;;;16.90;3.13;;;13.00;99.90;;;;;;5095797;28;20619;-71
2022/11/09 09:12:06;;;;;;;5.43;2.50;;;12.80;99.90;;;;;;5085764;28;20632;-69
2022/11/09 09:14:32;;;;;;;18.17;2.93;;;12.90;99.90;;;;;;5095330;28;20252;-68
2022/11/09 09:17:01;;;;;;;9.93;3.37;;;13.10;99.90;;;;;;5086869;28;20191;-69
2022/11/09 09:19:27;;;;;;;9.47;2.43;;;13.20;99.90;;;;;;5092375;28;20204;-70
2022/11/09 09:21:53;;;;;;;9.27;2.83;;;13.20;99.90;;;;;;5088411;28;20593;-71
2022/11/09 09:24:19;;;;;;;6.33;2.20;;;13.20;99.90;;;;;;5087468;28;20182;-69
2022/11/09 09:26:45;;;;;;;5.70;1.80;;;13.20;99.90;;;;;;5086443;28;20250;-68
2022/11/09 09:29:12;;;;;;;6.00;2.27;;;13.10;99.90;;;;;;5095531;28;20197;-69
2022/11/09 09:31:41;;;;;;;7.60;2.13;;;13.10;99.90;;;;;;5087858;28;20302;-68
2022/11/09 09:34:07;;;;;;;8.17;2.30;;;13.20;99.90;;;;;;5091520;28;20492;-68
2022/11/09 09:36:34;;;;;;;8.80;2.53;;;13.30;99.90;;;;;;5077577;28;20241;-68
2022/11/09 09:39:00;;;;;;;10.13;1.90;;;13.30;99.90;;;;;;5085898;28;20205;-70
2022/11/09 09:41:34;;;;;;;6.60;2.20;;;13.50;99.90;;;;;;5092797;28;20546;-69
2022/11/09 09:44:31;;;;;;;9.00;2.17;;;13.40;99.90;;;;;;5084624;28;20185;-73
2022/11/09 09:47:14;;;;;;;6.73;2.80;;;13.40;99.90;;;;;;5090125;28;20196;-73
2022/11/09 09:50:10;;;;;;;5.80;3.07;;;13.40;99.90;;;;;;5091171;28;20205;-71
2022/11/09 09:53:06;;;;;;;13.80;2.70;;;13.50;99.90;;;;;;5088632;28;20185;-70
2022/11/09 09:55:40;;;;;;;10.73;2.43;;;13.60;99.90;;;;;;5083600;28;20456;-70
2022/11/09 09:58:23;;;;;;;7.73;2.30;;;13.60;99.90;;;;;;5090792;28;20187;-69
2022/11/09 10:00:54;;;;;;;15.30;2.80;;;13.60;99.90;;;;;;5091179;28;20183;-70
2022/11/09 10:03:20;;;;;;;12.23;2.53;;;13.60;99.90;;;;;;5092702;28;20289;-69
2022/11/09 10:06:15;;;;;;;5.63;2.23;;;13.60;99.90;;;;;;5094693;28;20179;-71
2022/11/09 10:08:47;;;;;;;8.33;2.83;;;13.60;99.90;;;;;;5095432;28;20224;-68
2022/11/09 10:11:23;;;;;;;7.40;1.93;;;13.60;99.90;;;;;;5094796;28;20363;-68
2022/11/09 10:14:18;;;;;;;7.37;2.40;;;13.60;99.90;;;;;;5088154;28;20204;-68
2022/11/09 10:17:00;;;;;;;7.17;1.90;;;13.70;99.90;;;;;;5082651;28;20174;-70
2022/11/09 10:19:50;;;;;;;4.63;1.80;;;13.80;99.90;;;;;;5086995;28;20175;-70
2022/11/09 10:22:26;;;;;;;7.93;2.60;;;13.70;99.90;;;;;;5096841;28;20264;-74
2022/11/09 10:24:56;;;;;;;6.17;2.33;;;13.70;99.90;;;;;;5096755;28;20181;-74
2022/11/09 10:27:35;;;;;;;10.53;3.77;;;13.70;99.90;;;;;;5081972;28;20217;-73
2022/11/09 10:30:10;;;;;;;10.70;2.33;;;13.70;99.90;;;;;;5085250;28;20183;-73
2022/11/09 10:32:36;;;;;;;6.60;2.60;;;13.60;99.90;;;;;;5091736;28;20183;-68
2022/11/09 10:35:17;;;;;;;4.97;1.60;;;13.70;99.90;;;;;;5093982;28;20185;-73
2022/11/09 10:37:45;;;;;;;3.73;2.33;;;13.80;99.90;;;;;;5090163;28;20182;-72
2022/11/09 10:40:11;;;;;;;2.37;1.53;;;13.70;99.90;;;;;;5092459;28;20183;-70
2022/11/09 10:42:37;;;;;;;7.67;1.80;;;13.70;99.90;;;;;;5099076;28;20178;-73
2022/11/09 10:45:26;;;;;;;10.03;2.47;;;13.70;99.90;;;;;;5092881;28;20198;-75
2022/11/09 10:47:51;;;;;;;6.00;2.37;;;13.70;99.90;;;;;;5092051;28;20183;-77
2022/11/09 10:50:30;;;;;;;4.63;2.40;;;13.70;99.90;;;;;;5087050;28;20255;-74
2022/11/09 10:53:10;;;;;;;3.30;1.67;;;13.70;99.90;;;;;;5090794;28;20180;-78
2022/11/09 10:55:36;;;;;;;5.23;2.53;;;13.70;99.90;;;;;;5091833;28;20178;-72
2022/11/09 10:58:30;;;;;;;9.63;2.60;;;13.70;99.90;;;;;;5098619;28;20179;-75
2022/11/09 11:01:01;;;;;;;8.17;2.30;;;13.60;99.90;;;;;;5094831;28;20186;-73
2022/11/09 11:03:29;;;;;;;9.53;2.60;;;13.60;99.90;;;;;;5089934;28;20221;-74
2022/11/09 11:06:13;;;;;;;5.50;1.53;;;13.70;99.90;;;;;;5096768;28;20171;-74
2022/11/09 11:08:50;;;;;;;3.20;1.63;;;13.70;99.90;;;;;;5090122;28;20581;-72
2022/11/09 11:11:30;;;;;;;7.93;2.00;;;13.70;99.90;;;;;;5092919;28;20203;-72
2022/11/09 11:14:27;;;;;;;8.60;2.00;;;13.70;99.90;;;;;;5098960;28;20189;-71
2022/11/09 11:16:54;;;;;;;3.90;1.80;;;13.60;99.90;;;;;;5080082;28;20300;-68
2022/11/09 11:19:37;;;;;;;6.77;1.93;;;13.50;99.90;;;;;;5092898;28;20594;-75
2022/11/09 11:22:12;;;;;;;10.60;2.67;;;13.60;99.90;;;;;;5094670;28;20174;-73
2022/11/09 11:24:51;;;;;;;2.90;2.33;;;13.50;99.90;;;;;;5083822;28;20223;-70
2022/11/09 11:27:23;;;;;;;5.90;2.27;;;13.60;99.90;;;;;;5093307;28;20189;-70
2022/11/09 11:30:02;;;;;;;6.63;1.87;;;13.40;99.90;;;;;;5089156;28;20188;-71
2022/11/09 11:32:27;;;;;;;10.27;3.10;;;13.40;99.90;;;;;;5085750;28;20217;-72
2022/11/09 11:34:53;;;;;;;8.43;2.27;;;13.40;99.90;;;;;;5097620;28;20213;-68
2022/11/09 11:37:36;;;;;;;10.93;2.90;;;13.30;99.90;;;;;;5091014;28;20182;-69
2022/11/09 11:40:07;;;;;;;8.47;2.50;;;13.30;99.90;;;;;;5093500;28;20213;-71
2022/11/09 11:42:50;;;;;;;14.33;2.97;;;13.30;99.90;;;;;;5095934;28;20177;-74
2022/11/09 11:45:31;;;;;;;13.27;2.90;;;13.30;99.90;;;;;;5087397;28;20203;-71
2022/11/09 11:48:04;;;;;;;4.40;2.73;;;13.40;99.90;;;;;;5092707;28;20178;-73
2022/11/09 11:51:01;;;;;;;12.00;3.10;;;13.40;99.90;;;;;;5097553;28;20206;-75
2022/11/09 11:53:46;;;;;;;9.87;3.23;;;13.50;99.90;;;;;;5093732;28;20185;-69
2022/11/09 11:56:33;;;;;;;4.30;2.53;;;13.60;99.90;;;;;;5096098;28;20175;-70
2022/11/09 11:59:23;;;;;;;10.20;2.47;;;13.60;99.90;;;;;;5094555;28;20254;-70
2022/11/09 12:02:17;;;;;;;10.23;2.73;;;13.60;99.90;;;;;;5085254;28;20490;-72
2022/11/09 12:04:42;;;;;;;10.50;3.10;;;13.50;99.90;;;;;;5078899;28;20211;-70
2022/11/09 12:07:24;;;;;;;7.03;2.33;;;13.50;99.90;;;;;;5088804;28;20189;-71
2022/11/09 12:10:08;;;;;;;5.37;2.60;;;13.50;99.90;;;;;;5091744;28;20215;-68
2022/11/09 12:12:47;;;;;;;10.03;1.87;;;13.40;99.90;;;;;;5092347;28;20253;-69
2022/11/09 12:15:54;;;;;;;3.73;1.53;;;13.40;99.90;;;;;;5097144;28;20537;-69
2022/11/09 12:18:31;;;;;;;4.53;1.90;;;13.30;99.90;;;;;;5083136;28;20197;-69
2022/11/09 12:21:11;;;;;;;5.63;1.13;;;13.30;99.90;;;;;;5089350;28;20179;-72
2022/11/09 12:23:43;;;;;;;8.90;2.20;;;13.10;99.90;;;;;;5090140;28;20183;-72
2022/11/09 12:26:42;;;;;;;4.97;2.07;;;13.10;99.90;;;;;;5087945;28;20188;-71
2022/11/09 12:29:31;;;;;;;7.77;1.53;;;13.10;99.90;;;;;;5092637;28;20166;-71
2022/11/09 12:32:34;;;;;;;4.33;1.10;;;13.10;99.90;;;;;;5093617;28;20215;-72
2022/11/09 12:35:14;;;;;;;6.70;2.03;;;8.80;99.90;;;;;;5089083;28;20182;-71
2022/11/09 12:37:57;;;;;;;6.43;2.53;;;-4.20;99.90;;;;;;5078245;28;20651;-73
2022/11/09 12:40:29;;;;;;;4.27;1.20;;;-4.50;99.90;;;;;;5092335;28;20183;-70
2022/11/09 12:43:14;;;;;;;2.13;1.40;;;-5.00;99.90;;;;;;5096395;28;20503;-71
2022/11/09 12:45:40;;;;;;;1.50;1.40;;;-3.90;99.90;;;;;;5089656;28;20266;-72
2022/11/09 12:48:31;;;;;;;1.50;1.40;;;-4.50;99.90;;;;;;5091311;28;20261;-70
2022/11/09 12:50:59;;;;;;;4.40;2.10;;;-4.20;99.90;;;;;;5091922;28;20513;-71
2022/11/09 12:53:33;;;;;;;5.13;1.40;;;-3.40;99.90;;;;;;5083663;28;20511;-70
2022/11/09 12:56:02;;;;;;;5.03;2.10;;;-4.60;99.90;;;;;;5092020;28;20183;-70
2022/11/09 12:58:30;;;;;;;3.53;1.70;;;-3.40;99.90;;;;;;5094423;28;20174;-75